Time;durP1;ratioP1;P1;durP2;ratioP2;P2;SDS_P1;SDS_P2;PMS_P1;PMS_P2;Temp;Humidity;BMP_temperature;BMP_pressure;BME280_temperature;BME280_humidity;BME280_pressure;Samples;Min_cycle;Max_cycle;Signal;HPM_P1;HPM_P2
2022/10/11 00:02:15;;;;;;;16.63;8.82;;;13.50;99.90;;;;;;5090283;28;20036;-73
2022/10/11 00:04:41;;;;;;;13.35;7.68;;;13.50;99.90;;;;;;5093491;28;20016;-73
2022/10/11 00:07:07;;;;;;;12.45;7.70;;;13.50;99.90;;;;;;5091341;28;20116;-74
2022/10/11 00:09:32;;;;;;;15.27;8.45;;;13.50;99.90;;;;;;5093360;28;20473;-73
2022/10/11 00:11:58;;;;;;;17.90;8.38;;;13.40;99.90;;;;;;5092669;28;20039;-73
2022/10/11 00:14:25;;;;;;;14.55;8.48;;;13.40;99.90;;;;;;5092543;28;20027;-73
2022/10/11 00:16:51;;;;;;;16.42;8.70;;;13.30;99.90;;;;;;5086056;28;20038;-73
2022/10/11 00:19:17;;;;;;;14.75;8.15;;;13.30;99.90;;;;;;5092469;28;20023;-73
2022/10/11 00:21:42;;;;;;;14.40;8.43;;;13.30;99.90;;;;;;5091897;28;20085;-73
2022/10/11 00:24:10;;;;;;;17.27;8.73;;;13.20;99.90;;;;;;5074034;28;20056;-73
2022/10/11 00:26:35;;;;;;;19.05;9.27;;;13.20;99.90;;;;;;5073941;28;20419;-72
2022/10/11 00:29:01;;;;;;;16.40;8.40;;;13.10;99.90;;;;;;5092707;28;20081;-73
2022/10/11 00:31:27;;;;;;;11.70;7.63;;;13.10;99.90;;;;;;5090987;28;20016;-73
2022/10/11 00:33:53;;;;;;;12.65;8.18;;;13.00;99.90;;;;;;5092398;28;20085;-73
2022/10/11 00:36:20;;;;;;;12.02;8.70;;;13.00;99.90;;;;;;5077184;28;20032;-73
2022/10/11 00:38:46;;;;;;;23.45;9.45;;;12.90;99.90;;;;;;5092754;28;20112;-72
2022/10/11 00:41:13;;;;;;;28.08;10.20;;;12.90;99.90;;;;;;5087356;28;20103;-73
2022/10/11 00:43:39;;;;;;;19.27;8.98;;;12.90;99.90;;;;;;5092380;28;20457;-72
2022/10/11 00:46:16;;;;;;;14.15;8.60;;;12.90;99.90;;;;;;5091446;28;20519;-73
2022/10/11 00:48:46;;;;;;;17.48;8.55;;;12.90;99.90;;;;;;5082984;28;20047;-72
2022/10/11 00:51:38;;;;;;;15.63;8.43;;;12.90;99.90;;;;;;5090797;28;20145;-72
2022/10/11 00:54:04;;;;;;;15.85;9.35;;;12.80;99.90;;;;;;5082849;28;20029;-73
2022/10/11 00:56:34;;;;;;;15.68;9.20;;;12.80;99.90;;;;;;5090611;28;20094;-73
2022/10/11 00:59:04;;;;;;;17.65;9.43;;;12.70;99.90;;;;;;5090272;28;20024;-72
2022/10/11 01:01:30;;;;;;;15.95;9.77;;;12.70;99.90;;;;;;5091967;28;20055;-72
2022/10/11 01:03:56;;;;;;;23.52;10.35;;;12.70;99.90;;;;;;5092009;28;20016;-73
2022/10/11 01:06:22;;;;;;;19.15;9.23;;;12.70;99.90;;;;;;5090371;28;20152;-73
2022/10/11 01:08:50;;;;;;;17.42;9.20;;;12.70;99.90;;;;;;5092134;28;20027;-73
2022/10/11 01:11:20;;;;;;;15.40;9.57;;;12.70;99.90;;;;;;5085632;28;20020;-72
2022/10/11 01:13:52;;;;;;;16.30;9.47;;;12.60;99.90;;;;;;5092214;28;20074;-73
2022/10/11 01:16:31;;;;;;;15.85;8.63;;;12.60;99.90;;;;;;5090820;28;20289;-74
2022/10/11 01:19:28;;;;;;;17.52;9.50;;;12.60;99.90;;;;;;5091704;28;20154;-73
2022/10/11 01:22:34;;;;;;;17.45;9.90;;;12.60;99.90;;;;;;5090322;28;20031;-74
2022/10/11 01:25:12;;;;;;;16.98;9.27;;;12.60;99.90;;;;;;5091742;28;20028;-73
2022/10/11 01:27:41;;;;;;;18.33;9.57;;;12.50;99.90;;;;;;5091507;28;20085;-74
2022/10/11 01:30:26;;;;;;;21.05;9.60;;;12.40;99.90;;;;;;5084958;28;20035;-74
2022/10/11 01:33:15;;;;;;;14.80;8.55;;;12.30;99.90;;;;;;5091596;28;20078;-74
2022/10/11 01:36:04;;;;;;;22.20;10.13;;;12.30;99.90;;;;;;5091321;28;20035;-74
2022/10/11 01:38:46;;;;;;;14.02;9.18;;;12.30;99.90;;;;;;5091482;28;20560;-73
2022/10/11 01:41:22;;;;;;;14.68;8.48;;;12.30;99.90;;;;;;5089728;28;20425;-73
2022/10/11 01:43:50;;;;;;;14.48;8.52;;;12.20;99.90;;;;;;5091930;28;20032;-73
2022/10/11 01:46:19;;;;;;;13.23;8.98;;;12.20;99.90;;;;;;5088012;28;20473;-74
2022/10/11 01:48:54;;;;;;;17.38;10.27;;;12.10;99.90;;;;;;5071963;28;20537;-72
2022/10/11 01:51:33;;;;;;;18.92;10.80;;;12.10;99.90;;;;;;5069651;28;20044;-72
2022/10/11 01:54:15;;;;;;;15.90;9.95;;;12.10;99.90;;;;;;5071558;28;20024;-72
2022/10/11 01:56:56;;;;;;;16.65;10.30;;;12.10;99.90;;;;;;5070629;28;20075;-72
2022/10/11 01:59:30;;;;;;;;;;;12.10;99.90;;;;;;5071125;28;20097;-72
2022/10/11 02:02:14;;;;;;;18.23;10.57;;;12.00;99.90;;;;;;5070839;28;20376;-72
2022/10/11 02:04:44;;;;;;;18.85;10.90;;;12.00;99.90;;;;;;5065759;28;20090;-72
2022/10/11 02:07:24;;;;;;;15.30;10.52;;;12.00;99.90;;;;;;5069933;28;20170;-72
2022/10/11 02:10:04;;;;;;;16.58;10.68;;;12.10;99.90;;;;;;5071179;28;20470;-72
2022/10/11 02:12:38;;;;;;;25.88;11.55;;;12.00;99.90;;;;;;5070325;28;20020;-72
2022/10/11 02:15:08;;;;;;;20.05;11.18;;;12.10;99.90;;;;;;5070331;28;20107;-73
2022/10/11 02:17:39;;;;;;;21.10;12.02;;;12.10;99.90;;;;;;5074263;28;20488;-73
2022/10/11 02:20:10;;;;;;;15.88;10.55;;;12.10;99.90;;;;;;5072396;28;20162;-73
2022/10/11 02:22:39;;;;;;;16.05;10.68;;;12.10;99.90;;;;;;5069535;28;20122;-73
2022/10/11 02:25:09;;;;;;;21.15;11.88;;;12.10;99.90;;;;;;5074453;28;20039;-74
2022/10/11 02:27:39;;;;;;;23.30;11.75;;;12.10;99.90;;;;;;5074783;28;20048;-73
2022/10/11 02:30:07;;;;;;;19.75;11.00;;;12.10;99.90;;;;;;5074039;28;20118;-73
2022/10/11 02:32:37;;;;;;;19.85;10.52;;;12.10;99.90;;;;;;5074370;28;20071;-73
2022/10/11 02:35:03;;;;;;;20.02;11.23;;;12.10;99.90;;;;;;5074462;28;20035;-73
2022/10/11 02:37:40;;;;;;;20.17;11.05;;;12.10;99.90;;;;;;5065285;28;20174;-73
2022/10/11 02:40:38;;;;;;;18.70;12.05;;;12.10;99.90;;;;;;5067397;28;20473;-74
2022/10/11 02:43:16;;;;;;;22.88;12.02;;;12.10;99.90;;;;;;5073770;28;20032;-74
2022/10/11 02:46:07;;;;;;;22.10;11.93;;;12.10;99.90;;;;;;5074236;28;20025;-73
2022/10/11 02:48:34;;;;;;;17.60;11.32;;;12.20;99.90;;;;;;5083435;28;20063;-73
2022/10/11 02:51:02;;;;;;;25.55;14.07;;;12.20;99.90;;;;;;5093521;28;20020;-73
2022/10/11 02:53:28;;;;;;;43.35;19.50;;;12.30;99.90;;;;;;5071629;28;20511;-73
2022/10/11 02:55:54;;;;;;;44.90;20.88;;;12.40;99.90;;;;;;5094452;28;20104;-74
2022/10/11 02:58:21;;;;;;;37.20;18.13;;;12.50;99.90;;;;;;5093609;28;20024;-71
2022/10/11 03:00:47;;;;;;;28.63;15.57;;;12.50;99.90;;;;;;5094382;28;20097;-74
2022/10/11 03:03:13;;;;;;;42.85;19.30;;;12.60;99.90;;;;;;5094053;28;20073;-72
2022/10/11 03:05:42;;;;;;;40.55;20.13;;;12.60;99.90;;;;;;5093899;28;20107;-71
2022/10/11 03:08:11;;;;;;;46.43;22.40;;;12.60;99.90;;;;;;5094304;28;20477;-71
2022/10/11 03:10:37;;;;;;;40.58;22.90;;;12.70;99.90;;;;;;5093485;28;20043;-72
2022/10/11 03:13:03;;;;;;;32.85;18.08;;;12.70;99.90;;;;;;5088489;28;20417;-72
2022/10/11 03:15:29;;;;;;;36.45;18.63;;;12.70;99.90;;;;;;5096618;28;20070;-71
2022/10/11 03:17:55;;;;;;;32.00;18.27;;;12.70;99.90;;;;;;5097020;28;20032;-72
2022/10/11 03:20:21;;;;;;;42.17;23.40;;;12.70;99.90;;;;;;5082920;28;20024;-71
2022/10/11 03:22:46;;;;;;;50.60;23.02;;;12.70;99.90;;;;;;5096573;28;20028;-71
2022/10/11 03:25:12;;;;;;;47.92;24.88;;;12.70;99.90;;;;;;5096399;28;20052;-71
2022/10/11 03:27:38;;;;;;;48.45;23.17;;;12.80;99.90;;;;;;5091477;28;20032;-71
2022/10/11 03:30:04;;;;;;;51.67;23.98;;;12.80;99.90;;;;;;5081272;28;20062;-72
2022/10/11 03:32:30;;;;;;;42.42;23.85;;;12.80;99.90;;;;;;5095608;28;20032;-70
2022/10/11 03:34:56;;;;;;;36.85;21.05;;;12.80;99.90;;;;;;5095101;28;20077;-70
2022/10/11 03:37:22;;;;;;;32.30;19.80;;;12.80;99.90;;;;;;5093319;28;20024;-71
2022/10/11 03:39:47;;;;;;;39.92;20.98;;;12.80;99.90;;;;;;5093678;28;20031;-72
2022/10/11 03:42:13;;;;;;;39.30;22.08;;;12.80;99.90;;;;;;5092764;28;20035;-71
2022/10/11 03:44:40;;;;;;;35.33;19.90;;;12.80;99.90;;;;;;5084369;28;20473;-71
2022/10/11 03:47:06;;;;;;;37.63;21.83;;;12.80;99.90;;;;;;5092225;28;20032;-71
2022/10/11 03:49:31;;;;;;;40.05;21.60;;;12.80;99.90;;;;;;5093008;28;20067;-72
2022/10/11 03:51:57;;;;;;;49.00;23.63;;;12.90;99.90;;;;;;5092747;28;20024;-71
2022/10/11 03:54:23;;;;;;;41.15;22.08;;;12.90;99.90;;;;;;5092462;28;20456;-72
2022/10/11 03:56:48;;;;;;;37.75;20.33;;;12.90;99.90;;;;;;5093084;28;20035;-71
2022/10/11 03:59:14;;;;;;;37.35;21.25;;;12.90;99.90;;;;;;5086407;28;20039;-71
2022/10/11 04:01:40;;;;;;;39.17;21.50;;;12.90;99.90;;;;;;5091268;28;20028;-71
2022/10/11 04:04:05;;;;;;;39.40;20.63;;;12.90;99.90;;;;;;5092888;28;20338;-72
2022/10/11 04:06:32;;;;;;;37.85;21.15;;;12.90;99.90;;;;;;5092670;28;20114;-72
2022/10/11 04:08:57;;;;;;;40.67;22.00;;;12.90;99.90;;;;;;5093233;28;20024;-71
2022/10/11 04:11:23;;;;;;;35.20;21.17;;;12.90;99.90;;;;;;5091911;28;20054;-72
2022/10/11 04:13:48;;;;;;;39.92;21.45;;;12.90;99.90;;;;;;5092935;28;20388;-72
2022/10/11 04:16:14;;;;;;;48.50;24.83;;;12.90;99.90;;;;;;5083683;28;20052;-72
2022/10/11 04:18:40;;;;;;;46.25;26.15;;;12.90;99.90;;;;;;5093009;28;20052;-72
2022/10/11 04:21:06;;;;;;;44.78;25.42;;;13.00;99.90;;;;;;5091219;28;20032;-72
2022/10/11 04:23:32;;;;;;;51.30;26.33;;;13.00;99.90;;;;;;5093172;28;20024;-71
2022/10/11 04:25:58;;;;;;;56.63;26.40;;;13.00;99.90;;;;;;5092237;28;20078;-72
2022/10/11 04:28:23;;;;;;;50.88;25.00;;;13.10;99.90;;;;;;5092174;28;20027;-72
2022/10/11 04:30:50;;;;;;;52.55;25.10;;;13.10;99.90;;;;;;5092131;28;20028;-72
2022/10/11 04:33:16;;;;;;;41.65;23.15;;;13.00;99.90;;;;;;5091521;28;20031;-72
2022/10/11 04:35:42;;;;;;;44.95;24.48;;;13.00;99.90;;;;;;5087669;28;20088;-72
2022/10/11 04:38:07;;;;;;;52.50;27.38;;;13.00;99.90;;;;;;5091692;28;20043;-72
2022/10/11 04:40:33;;;;;;;54.17;30.00;;;13.00;99.90;;;;;;5090994;28;20035;-72
2022/10/11 04:42:59;;;;;;;61.33;28.15;;;13.00;99.90;;;;;;5092215;28;20024;-73
2022/10/11 04:45:25;;;;;;;47.15;26.67;;;13.00;99.90;;;;;;5090980;28;20257;-72
2022/10/11 04:47:51;;;;;;;46.92;25.17;;;13.00;99.90;;;;;;5092156;28;20048;-72
2022/10/11 04:50:17;;;;;;;49.00;26.38;;;13.00;99.90;;;;;;5089248;28;20028;-72
2022/10/11 04:52:42;;;;;;;55.88;24.95;;;13.00;99.90;;;;;;5078181;28;20032;-73
2022/10/11 04:55:08;;;;;;;49.20;25.85;;;12.90;99.90;;;;;;5090078;28;20728;-74
2022/10/11 04:57:34;;;;;;;52.08;27.02;;;12.90;99.90;;;;;;5092137;28;20042;-73
2022/10/11 05:00:00;;;;;;;59.63;27.50;;;12.90;99.90;;;;;;5092343;28;20376;-71
2022/10/11 05:02:25;;;;;;;43.80;26.13;;;12.90;99.90;;;;;;5090714;28;20032;-72
2022/10/11 05:04:51;;;;;;;39.30;23.42;;;12.90;99.90;;;;;;5092184;28;20078;-72
2022/10/11 05:07:17;;;;;;;45.85;25.35;;;12.90;99.90;;;;;;5090881;28;20074;-72
2022/10/11 05:09:42;;;;;;;51.63;27.52;;;12.90;99.90;;;;;;5079595;28;20028;-73
2022/10/11 05:12:08;;;;;;;47.83;26.50;;;12.90;99.90;;;;;;5090017;28;20082;-71
2022/10/11 05:14:34;;;;;;;55.55;27.23;;;12.90;99.90;;;;;;5091384;28;20036;-71
2022/10/11 05:17:00;;;;;;;52.42;26.70;;;12.90;99.90;;;;;;5091316;28;20051;-71
2022/10/11 05:19:25;;;;;;;50.65;26.35;;;13.00;99.90;;;;;;5091468;28;20028;-70
2022/10/11 05:21:51;;;;;;;56.50;29.02;;;13.00;99.90;;;;;;5091302;28;20590;-71
2022/10/11 05:24:17;;;;;;;45.20;26.30;;;13.00;99.90;;;;;;5091070;28;20024;-71
2022/10/11 05:26:42;;;;;;;48.55;26.85;;;13.00;99.90;;;;;;5087423;28;20042;-75
2022/10/11 05:29:08;;;;;;;47.72;26.92;;;13.00;99.90;;;;;;5090882;28;20038;-76
2022/10/11 05:31:33;;;;;;;52.72;27.08;;;13.00;99.90;;;;;;5086725;28;20028;-78
2022/10/11 05:33:59;;;;;;;37.83;23.13;;;12.90;99.90;;;;;;5092278;28;20024;-79
2022/10/11 05:36:25;;;;;;;39.25;22.77;;;13.00;99.90;;;;;;5090735;28;20330;-78
2022/10/11 05:38:50;;;;;;;46.85;26.30;;;13.00;99.90;;;;;;5074117;28;20024;-77
2022/10/11 05:41:16;;;;;;;51.88;26.38;;;13.00;99.90;;;;;;5089596;28;20423;-75
2022/10/11 05:43:43;;;;;;;44.58;26.75;;;13.00;99.90;;;;;;5091661;28;20024;-76
2022/10/11 05:46:09;;;;;;;48.05;26.77;;;13.00;99.90;;;;;;5090096;28;20070;-82
2022/10/11 05:48:35;;;;;;;41.75;24.98;;;13.00;99.90;;;;;;5089719;28;20444;-76
2022/10/11 05:51:06;;;;;;;43.40;25.45;;;13.00;99.90;;;;;;5073171;28;20032;-74
2022/10/11 05:53:32;;;;;;;48.35;25.70;;;13.00;99.90;;;;;;5084497;28;20032;-74
2022/10/11 05:55:58;;;;;;;47.72;26.98;;;13.00;99.90;;;;;;5073219;28;20062;-79
2022/10/11 05:58:24;;;;;;;54.60;28.92;;;13.00;99.90;;;;;;5090693;28;20694;-74
2022/10/11 06:00:50;;;;;;;48.53;28.17;;;13.00;99.90;;;;;;5090773;28;20051;-74
2022/10/11 06:03:16;;;;;;;47.92;25.17;;;13.10;99.90;;;;;;5089693;28;20426;-74
2022/10/11 06:05:42;;;;;;;40.97;24.27;;;13.10;99.90;;;;;;5090363;28;20036;-74
2022/10/11 06:08:09;;;;;;;44.80;27.23;;;13.10;99.90;;;;;;5083828;28;20032;-74
2022/10/11 06:10:37;;;;;;;44.90;26.80;;;13.10;99.90;;;;;;5093954;28;20032;-74
2022/10/11 06:13:02;;;;;;;53.88;26.65;;;13.10;99.90;;;;;;5090922;28;20124;-74
2022/10/11 06:15:28;;;;;;;49.35;27.23;;;13.10;99.90;;;;;;5089635;28;20032;-78
2022/10/11 06:17:54;;;;;;;40.42;22.85;;;13.10;99.90;;;;;;5091372;28;20044;-82
2022/10/11 06:20:19;;;;;;;42.25;24.40;;;13.20;99.90;;;;;;5089966;28;20075;-80
2022/10/11 06:22:45;;;;;;;44.90;24.00;;;13.10;99.90;;;;;;5084090;28;20218;-74
2022/10/11 06:25:11;;;;;;;50.38;26.20;;;13.10;99.90;;;;;;5089854;28;20047;-74
2022/10/11 06:27:37;;;;;;;42.90;23.15;;;13.10;99.90;;;;;;5082141;28;20035;-74
2022/10/11 06:30:03;;;;;;;42.80;23.42;;;13.10;99.90;;;;;;5083488;28;20036;-71
2022/10/11 06:32:29;;;;;;;44.15;23.45;;;13.20;99.90;;;;;;5084469;28;20020;-74
2022/10/11 06:34:55;;;;;;;39.75;22.35;;;13.20;99.90;;;;;;5085819;28;20039;-74
2022/10/11 06:37:23;;;;;;;45.67;21.88;;;13.20;99.90;;;;;;5089537;28;20044;-75
2022/10/11 06:39:49;;;;;;;39.83;21.63;;;13.20;99.90;;;;;;5068163;28;20341;-72
2022/10/11 06:42:15;;;;;;;41.67;21.92;;;13.10;99.90;;;;;;5085041;28;20039;-72
2022/10/11 06:44:43;;;;;;;37.03;21.33;;;13.10;99.90;;;;;;5090918;28;20381;-72
2022/10/11 06:47:09;;;;;;;35.22;20.38;;;13.10;99.90;;;;;;5069405;28;20162;-73
2022/10/11 06:49:34;;;;;;;37.92;21.38;;;13.10;99.90;;;;;;5059205;28;20599;-72
2022/10/11 06:52:00;;;;;;;38.20;20.10;;;13.20;99.90;;;;;;5065028;28;20083;-72
2022/10/11 06:54:26;;;;;;;35.50;19.50;;;13.20;99.90;;;;;;5064540;28;20073;-72
2022/10/11 06:56:52;;;;;;;32.55;19.25;;;13.30;99.90;;;;;;5055926;28;20057;-73
2022/10/11 06:59:17;;;;;;;35.20;19.40;;;13.20;99.90;;;;;;5063819;28;20106;-73
2022/10/11 07:01:43;;;;;;;37.97;19.60;;;13.20;99.90;;;;;;5064453;28;20116;-73
2022/10/11 07:04:08;;;;;;;32.30;19.25;;;13.10;99.90;;;;;;5068901;28;20029;-71
2022/10/11 07:06:39;;;;;;;36.80;19.45;;;13.10;99.90;;;;;;5069912;28;20444;-72
2022/10/11 07:09:06;;;;;;;38.03;19.27;;;13.10;99.90;;;;;;5067253;28;20036;-72
2022/10/11 07:11:32;;;;;;;36.15;18.83;;;13.20;99.90;;;;;;5067309;28;20036;-71
2022/10/11 07:14:00;;;;;;;39.88;19.15;;;13.20;99.90;;;;;;5070509;28;20100;-71
2022/10/11 07:16:27;;;;;;;33.17;18.98;;;13.20;99.90;;;;;;5069557;28;20131;-72
2022/10/11 07:18:57;;;;;;;32.80;18.95;;;13.20;99.90;;;;;;5088295;28;20044;-71
2022/10/11 07:21:22;;;;;;;31.77;17.67;;;13.30;99.90;;;;;;5091661;28;20241;-72
2022/10/11 07:23:48;;;;;;;31.02;17.50;;;13.30;99.90;;;;;;5093354;28;20075;-72
2022/10/11 07:26:14;;;;;;;32.70;18.33;;;13.40;99.90;;;;;;5089499;28;20484;-72
2022/10/11 07:28:40;;;;;;;29.63;17.15;;;13.50;99.90;;;;;;5085861;28;20029;-72
2022/10/11 07:31:11;;;;;;;36.40;18.48;;;13.60;99.90;;;;;;5089470;28;20477;-74
2022/10/11 07:33:37;;;;;;;35.40;17.13;;;13.60;99.90;;;;;;5072415;28;20032;-73
2022/10/11 07:36:04;;;;;;;29.38;18.55;;;13.60;99.90;;;;;;5068489;28;20040;-73
2022/10/11 07:38:29;;;;;;;30.25;16.80;;;13.60;99.90;;;;;;5086087;28;20024;-73
2022/10/11 07:40:55;;;;;;;38.90;18.80;;;13.60;99.90;;;;;;5085313;28;20038;-73
2022/10/11 07:43:21;;;;;;;31.52;17.27;;;13.70;99.90;;;;;;5091529;28;20023;-72
2022/10/11 07:45:53;;;;;;;31.02;16.95;;;13.80;99.90;;;;;;5090485;28;20024;-73
2022/10/11 07:48:19;;;;;;;32.28;17.05;;;13.80;99.90;;;;;;5082992;28;20535;-73
2022/10/11 07:50:45;;;;;;;30.38;16.50;;;13.90;99.90;;;;;;5088580;28;20054;-72
2022/10/11 07:53:10;;;;;;;28.25;16.67;;;13.90;99.90;;;;;;5079026;28;20072;-73
2022/10/11 07:55:41;;;;;;;28.05;16.60;;;13.90;99.90;;;;;;5088424;28;20036;-72
2022/10/11 07:58:08;;;;;;;32.95;16.40;;;13.90;99.90;;;;;;5091975;28;20036;-72
2022/10/11 08:00:34;;;;;;;27.95;16.52;;;14.00;99.90;;;;;;5087329;28;20025;-71
2022/10/11 08:03:06;;;;;;;30.38;16.50;;;13.90;99.90;;;;;;5086899;28;20024;-71
2022/10/11 08:05:33;;;;;;;29.15;16.17;;;14.10;99.90;;;;;;5091931;28;20414;-71
2022/10/11 08:07:59;;;;;;;30.52;16.73;;;14.10;99.90;;;;;;5090751;28;20039;-71
2022/10/11 08:10:26;;;;;;;30.52;17.02;;;14.10;99.90;;;;;;5080748;28;20584;-72
2022/10/11 08:12:52;;;;;;;25.15;16.77;;;14.10;99.90;;;;;;5082754;28;20097;-71
2022/10/11 08:15:18;;;;;;;24.42;16.75;;;14.10;99.90;;;;;;5089348;28;20038;-72
2022/10/11 08:17:44;;;;;;;29.48;16.17;;;14.30;99.90;;;;;;5091293;28;20055;-71
2022/10/11 08:20:10;;;;;;;26.50;15.82;;;14.30;99.90;;;;;;5088612;28;20453;-72
2022/10/11 08:22:35;;;;;;;31.55;16.55;;;14.30;99.90;;;;;;5092043;28;20020;-71
2022/10/11 08:25:01;;;;;;;29.85;16.75;;;14.40;99.90;;;;;;5091900;28;20545;-72
2022/10/11 08:27:26;;;;;;;34.58;16.13;;;14.50;99.90;;;;;;5091540;28;20028;-72
2022/10/11 08:29:52;;;;;;;29.58;18.15;;;14.50;99.90;;;;;;5088854;28;20047;-72
2022/10/11 08:32:18;;;;;;;28.85;16.67;;;14.60;99.90;;;;;;5090793;28;20016;-72
2022/10/11 08:34:43;;;;;;;43.80;18.55;;;14.50;99.90;;;;;;5088732;28;20028;-72
2022/10/11 08:37:09;;;;;;;37.17;18.25;;;14.50;99.90;;;;;;5089260;28;20044;-72
2022/10/11 08:39:34;;;;;;;33.42;18.23;;;14.50;99.90;;;;;;5092388;28;20032;-72
2022/10/11 08:42:11;;;;;;;33.70;17.30;;;14.40;99.90;;;;;;5090104;28;20385;-73
2022/10/11 08:44:37;;;;;;;34.50;18.00;;;14.50;99.90;;;;;;5090781;28;20455;-72
2022/10/11 08:47:11;;;;;;;32.42;18.10;;;14.50;99.90;;;;;;5091271;28;20066;-72
2022/10/11 08:49:38;;;;;;;29.58;18.52;;;14.60;99.90;;;;;;5089574;28;20085;-72
2022/10/11 08:52:14;;;;;;;33.75;18.00;;;14.60;99.90;;;;;;5089254;28;20039;-72
2022/10/11 08:54:48;;;;;;;28.67;17.25;;;14.60;99.90;;;;;;5083924;28;20024;-72
2022/10/11 08:57:18;;;;;;;30.33;16.63;;;14.60;99.90;;;;;;5090277;28;20032;-73
2022/10/11 08:59:52;;;;;;;30.05;17.10;;;14.60;99.90;;;;;;5091609;28;20028;-72
2022/10/11 09:02:20;;;;;;;35.90;18.13;;;14.60;99.90;;;;;;5089619;28;20485;-72
2022/10/11 09:04:50;;;;;;;29.20;18.45;;;14.50;99.90;;;;;;5081759;28;20035;-73
2022/10/11 09:07:40;;;;;;;31.07;17.87;;;14.50;99.90;;;;;;5089848;28;20046;-73
2022/10/11 09:10:11;;;;;;;;;;;14.50;99.90;;;;;;5090131;28;20039;-73
2022/10/11 09:13:04;;;;;;;35.50;17.15;;;14.50;99.90;;;;;;5091341;28;19912;-71
2022/10/11 09:15:35;;;;;;;31.33;17.63;;;14.50;99.90;;;;;;5090964;28;20099;-72
2022/10/11 09:18:11;;;;;;;31.08;18.48;;;14.50;99.90;;;;;;5090895;28;20036;-72
2022/10/11 09:20:42;;;;;;;29.67;18.75;;;14.50;99.90;;;;;;5090570;28;20027;-72
2022/10/11 09:23:30;;;;;;;31.13;18.02;;;14.40;99.90;;;;;;5090366;28;20066;-73
2022/10/11 09:26:13;;;;;;;33.40;18.90;;;14.30;99.90;;;;;;5090060;28;20040;-72
2022/10/11 09:29:23;;;;;;;37.33;19.45;;;14.30;99.90;;;;;;5091295;28;20024;-73
2022/10/11 09:31:53;;;;;;;34.55;18.25;;;14.20;99.90;;;;;;5090110;28;20024;-72
2022/10/11 09:34:20;;;;;;;38.20;19.50;;;14.20;99.90;;;;;;5090110;28;20036;-73
2022/10/11 09:36:56;;;;;;;27.67;17.13;;;14.30;99.90;;;;;;5090075;28;20036;-73
2022/10/11 09:39:30;;;;;;;33.50;19.50;;;14.30;99.90;;;;;;5090263;28;20039;-72
2022/10/11 09:42:00;;;;;;;38.05;20.60;;;14.30;99.90;;;;;;5089907;28;20044;-72
2022/10/11 09:44:38;;;;;;;38.45;19.90;;;14.30;99.90;;;;;;5089762;28;20028;-72
2022/10/11 09:47:06;;;;;;;36.42;19.15;;;14.40;99.90;;;;;;5086525;28;20125;-73
2022/10/11 09:49:40;;;;;;;35.47;18.90;;;14.40;99.90;;;;;;5090322;28;20052;-72
2022/10/11 09:52:14;;;;;;;40.78;19.73;;;14.40;99.90;;;;;;5089204;28;20099;-71
2022/10/11 09:54:48;;;;;;;35.75;19.35;;;14.50;99.90;;;;;;5089015;28;20023;-73
2022/10/11 09:57:32;;;;;;;41.00;19.65;;;14.50;99.90;;;;;;5089233;28;20046;-72
2022/10/11 10:00:26;;;;;;;35.67;18.45;;;14.50;99.90;;;;;;5090127;28;20012;-73
2022/10/11 10:02:57;;;;;;;31.70;18.25;;;14.60;99.90;;;;;;5090196;28;20028;-73
2022/10/11 10:05:28;;;;;;;34.38;17.55;;;14.70;99.90;;;;;;5089298;28;20032;-72
2022/10/11 10:08:01;;;;;;;;;;;14.70;99.90;;;;;;5090523;28;20047;-73
2022/10/11 10:10:32;;;;;;;32.38;17.15;;;14.80;99.90;;;;;;5088999;28;19904;-72
2022/10/11 10:13:01;;;;;;;36.75;18.38;;;14.80;99.90;;;;;;5090554;28;20028;-72
2022/10/11 10:15:37;;;;;;;40.97;18.02;;;14.90;99.90;;;;;;5086925;28;20028;-72
2022/10/11 10:18:05;;;;;;;43.50;17.63;;;15.00;99.90;;;;;;5089780;28;20499;-72
2022/10/11 10:20:34;;;;;;;34.45;17.67;;;15.00;99.90;;;;;;5089705;28;20059;-72
2022/10/11 10:23:09;;;;;;;37.63;17.40;;;14.90;99.90;;;;;;5090394;28;20491;-72
2022/10/11 10:25:37;;;;;;;30.83;17.10;;;15.10;99.90;;;;;;5089809;28;20036;-75
2022/10/11 10:28:20;;;;;;;36.25;18.20;;;15.00;99.90;;;;;;5090088;28;20106;-74
2022/10/11 10:30:54;;;;;;;31.83;17.75;;;15.10;99.90;;;;;;5083546;28;20031;-72
2022/10/11 10:33:32;;;;;;;43.17;18.27;;;15.10;99.90;;;;;;5078739;28;20075;-73
2022/10/11 10:36:18;;;;;;;32.35;18.00;;;15.10;99.90;;;;;;5087631;28;20028;-73
2022/10/11 10:38:50;;;;;;;32.53;17.65;;;15.00;99.90;;;;;;5083805;28;20028;-72
2022/10/11 10:41:17;;;;;;;29.27;16.25;;;15.00;99.90;;;;;;5093137;28;20048;-72
2022/10/11 10:43:52;;;;;;;33.78;16.73;;;15.00;99.90;;;;;;5094331;28;20023;-73
2022/10/11 10:46:40;;;;;;;40.38;17.40;;;15.10;99.90;;;;;;5088923;28;20032;-72
2022/10/11 10:49:15;;;;;;;27.92;16.38;;;15.10;99.90;;;;;;5091097;28;20048;-73
2022/10/11 10:52:18;;;;;;;28.38;14.95;;;15.20;99.90;;;;;;5075602;28;20030;-72
2022/10/11 10:55:03;;;;;;;29.25;14.52;;;15.20;99.90;;;;;;5089393;28;20028;-73
2022/10/11 10:57:58;;;;;;;29.38;15.65;;;15.30;99.90;;;;;;5093869;28;20452;-73
2022/10/11 11:00:23;;;;;;;27.25;16.02;;;15.30;99.90;;;;;;5093187;28;20020;-74
2022/10/11 11:03:01;;;;;;;26.98;15.50;;;15.40;99.90;;;;;;5091734;28;20397;-73
2022/10/11 11:05:44;;;;;;;29.83;14.82;;;15.40;99.90;;;;;;5082236;28;20110;-73
2022/10/11 11:08:25;;;;;;;28.88;15.13;;;15.50;99.90;;;;;;5079073;28;20032;-73
2022/10/11 11:10:54;;;;;;;;;;;15.60;99.90;;;;;;5093472;28;20024;-72
2022/10/11 11:13:23;;;;;;;23.27;13.80;;;15.70;99.90;;;;;;5093118;28;19911;-73
2022/10/11 11:15:54;;;;;;;26.90;15.77;;;15.70;99.90;;;;;;5093241;28;20331;-72
2022/10/11 11:18:46;;;;;;;25.10;15.20;;;15.80;99.90;;;;;;5074365;28;20431;-73
2022/10/11 11:21:22;;;;;;;29.20;15.00;;;15.90;99.90;;;;;;5092176;28;20522;-72
2022/10/11 11:24:32;;;;;;;30.75;14.45;;;15.80;99.90;;;;;;5093487;28;20131;-72
2022/10/11 11:27:05;;;;;;;;;;;15.90;99.90;;;;;;5086382;28;20028;-73
2022/10/11 11:29:30;;;;;;;21.20;13.00;;;15.90;99.90;;;;;;5093916;28;20371;-73
2022/10/11 11:32:11;;;;;;;26.40;15.43;;;15.80;99.90;;;;;;5092672;28;20024;-73
2022/10/11 11:34:40;;;;;;;22.75;14.13;;;15.80;99.90;;;;;;5082844;28;20025;-73
2022/10/11 11:37:25;;;;;;;26.23;14.25;;;15.80;99.90;;;;;;5089235;28;20043;-73
2022/10/11 11:40:00;;;;;;;24.77;13.68;;;15.80;99.90;;;;;;5093159;28;20388;-73
2022/10/11 11:42:44;;;;;;;17.88;12.50;;;15.90;99.90;;;;;;5087538;28;20165;-73
2022/10/11 11:45:27;;;;;;;27.55;14.63;;;15.80;99.90;;;;;;5091993;28;20024;-72
2022/10/11 11:48:04;;;;;;;21.42;13.82;;;15.90;99.90;;;;;;5092684;28;20473;-72
2022/10/11 11:50:39;;;;;;;20.33;13.77;;;15.90;99.90;;;;;;5090903;28;20035;-72
2022/10/11 11:53:47;;;;;;;22.42;13.48;;;15.90;99.90;;;;;;5092183;28;20039;-73
2022/10/11 11:56:43;;;;;;;21.45;12.93;;;15.90;99.90;;;;;;5090352;28;20052;-72
2022/10/11 11:59:28;;;;;;;20.92;13.60;;;15.90;99.90;;;;;;5091773;28;20024;-73
2022/10/11 12:02:12;;;;;;;22.45;12.80;;;15.90;99.90;;;;;;5091537;28;20056;-72
2022/10/11 12:04:42;;;;;;;20.98;11.18;;;15.90;99.90;;;;;;5084400;28;20015;-72
2022/10/11 12:07:09;;;;;;;17.13;12.30;;;16.00;99.90;;;;;;5091478;28;20051;-73
2022/10/11 12:09:36;;;;;;;22.35;11.77;;;16.00;99.90;;;;;;5091540;28;20034;-73
2022/10/11 12:12:23;;;;;;;23.85;12.30;;;16.10;99.90;;;;;;5091451;28;20074;-73
2022/10/11 12:14:49;;;;;;;19.50;10.68;;;16.10;99.90;;;;;;5092418;28;20465;-72
2022/10/11 12:17:21;;;;;;;23.58;11.70;;;16.10;99.90;;;;;;5072397;28;20199;-73
2022/10/11 12:20:13;;;;;;;19.33;12.18;;;16.00;99.90;;;;;;5092476;28;20028;-73
2022/10/11 12:22:48;;;;;;;20.63;11.63;;;16.00;99.90;;;;;;5088030;28;20028;-73
2022/10/11 12:25:13;;;;;;;17.85;10.40;;;16.00;99.90;;;;;;5090666;28;20385;-73
2022/10/11 12:27:43;;;;;;;26.25;13.38;;;16.00;99.90;;;;;;5091044;28;20089;-73
2022/10/11 12:30:46;;;;;;;22.73;12.32;;;16.00;99.90;;;;;;5091267;28;20020;-72
2022/10/11 12:33:29;;;;;;;20.65;13.13;;;16.00;99.90;;;;;;5091268;28;20047;-73
2022/10/11 12:35:57;;;;;;;21.50;12.45;;;16.00;99.90;;;;;;5089597;28;20024;-72
2022/10/11 12:38:34;;;;;;;18.63;13.23;;;16.00;99.90;;;;;;5080607;28;20019;-73
2022/10/11 12:41:08;;;;;;;21.17;12.50;;;16.00;99.90;;;;;;5091781;28;20047;-72
2022/10/11 12:43:49;;;;;;;21.38;12.40;;;15.90;99.90;;;;;;5091822;28;20052;-73
2022/10/11 12:46:27;;;;;;;16.58;11.52;;;15.90;99.90;;;;;;5091071;28;20024;-72
2022/10/11 12:49:14;;;;;;;21.60;12.23;;;15.90;99.90;;;;;;5091496;28;20043;-72
2022/10/11 12:52:17;;;;;;;23.25;13.32;;;15.90;99.90;;;;;;5089783;28;20102;-72